Time;durP1;ratioP1;P1;durP2;ratioP2;P2;SDS_P1;SDS_P2;PMS_P1;PMS_P2;Temp;Humidity;BMP_temperature;BMP_pressure;BME280_temperature;BME280_humidity;BME280_pressure;Samples;Min_cycle;Max_cycle;Signal;HPM_P1;HPM_P2
2022/06/23 00:01:53;;;;;;;3.25;1.92;;;26.80;43.90;;;;;;8462576;28;20370;-43
2022/06/23 00:06:00;;;;;;;3.80;2.55;;;26.80;44.00;;;;;;8463657;28;20035;-44
2022/06/23 00:10:21;;;;;;;2.67;2.10;;;26.80;43.90;;;;;;8463686;28;20061;-44
2022/06/23 00:14:25;;;;;;;3.72;2.00;;;26.80;43.90;;;;;;8462524;28;20396;-44
2022/06/23 00:18:31;;;;;;;4.03;2.53;;;26.70;43.90;;;;;;8463584;28;20044;-44
2022/06/23 00:22:33;;;;;;;4.75;2.58;;;26.80;44.00;;;;;;8462788;28;20035;-44
2022/06/23 00:26:34;;;;;;;3.00;2.10;;;26.80;43.90;;;;;;8463308;28;20456;-44
2022/06/23 00:30:38;;;;;;;3.05;1.67;;;26.80;43.90;;;;;;8463242;28;20023;-44
2022/06/23 00:34:42;;;;;;;2.72;1.88;;;26.70;43.90;;;;;;8462622;28;20039;-44
2022/06/23 00:38:42;;;;;;;4.65;2.08;;;26.70;43.90;;;;;;8463251;28;20051;-44
2022/06/23 00:42:55;;;;;;;;;;;26.70;43.90;;;;;;8463428;28;20046;-44
2022/06/23 00:47:01;;;;;;;3.03;2.00;;;26.70;43.90;;;;;;8462467;28;19943;-45
2022/06/23 00:51:17;;;;;;;2.72;1.85;;;26.70;43.90;;;;;;8462840;28;20036;-43
2022/06/23 00:55:54;;;;;;;2.45;1.80;;;26.70;43.90;;;;;;8462264;28;20096;-43
2022/06/23 01:00:21;;;;;;;2.22;1.85;;;26.60;43.90;;;;;;8462563;28;20043;-44
2022/06/23 01:04:27;;;;;;;3.58;1.80;;;26.70;44.00;;;;;;8462396;28;20496;-45
2022/06/23 01:08:36;;;;;;;3.35;2.15;;;26.60;43.90;;;;;;8461713;28;20043;-43
2022/06/23 01:12:46;;;;;;;2.13;1.67;;;26.60;43.90;;;;;;8464375;28;20039;-44
2022/06/23 01:16:52;;;;;;;2.75;2.00;;;26.60;43.90;;;;;;8468654;27;20043;-43
2022/06/23 01:21:00;;;;;;;3.30;1.90;;;26.60;43.90;;;;;;8469182;28;20031;-44
2022/06/23 01:25:20;;;;;;;2.58;2.00;;;26.60;43.90;;;;;;8468886;27;20042;-43
2022/06/23 01:29:29;;;;;;;4.60;2.10;;;26.60;43.80;;;;;;8468705;28;20032;-43
2022/06/23 01:33:54;;;;;;;2.03;1.52;;;26.60;43.90;;;;;;8468914;28;20392;-43
2022/06/23 01:38:09;;;;;;;2.95;2.00;;;26.60;43.90;;;;;;8467941;28;20043;-43
2022/06/23 01:42:18;;;;;;;2.00;1.70;;;26.60;43.90;;;;;;8468381;28;20039;-43
2022/06/23 01:46:24;;;;;;;3.92;2.10;;;26.60;43.90;;;;;;8467784;28;20031;-44
2022/06/23 01:50:41;;;;;;;5.82;2.22;;;26.50;43.80;;;;;;8468034;28;20029;-43
2022/06/23 01:54:44;;;;;;;2.53;1.60;;;26.50;43.80;;;;;;8468133;28;20057;-45
2022/06/23 01:58:58;;;;;;;2.30;1.60;;;26.50;43.80;;;;;;8467300;27;20036;-43
2022/06/23 02:03:16;;;;;;;2.30;1.73;;;26.50;43.90;;;;;;8467504;28;20036;-44
2022/06/23 02:07:25;;;;;;;2.63;1.80;;;26.50;43.80;;;;;;8467842;28;20024;-43
2022/06/23 02:11:41;;;;;;;2.17;1.70;;;26.50;43.80;;;;;;8467768;28;20040;-44
2022/06/23 02:16:14;;;;;;;1.90;1.60;;;26.50;43.80;;;;;;8467203;28;20032;-44
2022/06/23 02:20:42;;;;;;;2.75;1.65;;;26.50;43.80;;;;;;8467217;28;20055;-43
2022/06/23 02:30:06;;;;;;;3.95;1.85;;;26.50;43.90;;;;;;8393311;28;20146;-44
2022/06/23 02:34:13;;;;;;;2.33;1.50;;;26.50;43.90;;;;;;8466225;28;20032;-44
2022/06/23 02:38:49;;;;;;;2.40;1.65;;;26.40;43.80;;;;;;8466285;28;20043;-43
2022/06/23 02:42:55;;;;;;;4.13;1.60;;;26.40;43.80;;;;;;8466675;28;20038;-44
2022/06/23 02:47:22;;;;;;;2.13;1.70;;;26.40;43.80;;;;;;8465856;27;20061;-44
2022/06/23 02:51:51;;;;;;;2.72;1.40;;;26.40;43.80;;;;;;8466068;28;20115;-43
2022/06/23 02:55:57;;;;;;;4.50;1.50;;;26.40;43.80;;;;;;8465575;28;20048;-43
2022/06/23 03:00:27;;;;;;;2.65;1.70;;;26.40;43.80;;;;;;8465955;28;20537;-44
2022/06/23 03:04:40;;;;;;;2.65;1.83;;;26.40;43.90;;;;;;8465417;28;20058;-44
2022/06/23 03:09:05;;;;;;;2.55;1.60;;;26.40;43.80;;;;;;8465867;28;20042;-43
2022/06/23 03:13:17;;;;;;;2.05;1.50;;;26.40;43.80;;;;;;8465519;28;20437;-43
2022/06/23 03:17:27;;;;;;;1.90;1.55;;;26.40;43.90;;;;;;8464888;28;20070;-44
2022/06/23 03:21:36;;;;;;;3.28;1.45;;;26.30;43.80;;;;;;8465015;28;20032;-43
2022/06/23 03:26:00;;;;;;;2.38;1.50;;;26.30;43.80;;;;;;8464471;28;20119;-43
2022/06/23 03:30:28;;;;;;;4.40;1.80;;;26.30;43.80;;;;;;8465051;28;20492;-43
2022/06/23 03:34:44;;;;;;;3.92;1.52;;;26.30;43.80;;;;;;8464092;27;20476;-45
2022/06/23 03:43:32;;;;;;;2.17;1.20;;;26.30;43.80;;;;;;8461064;28;20092;-43
2022/06/23 03:47:57;;;;;;;2.97;1.48;;;26.30;43.90;;;;;;8464211;28;20507;-45
2022/06/23 03:52:02;;;;;;;1.52;1.42;;;26.30;43.80;;;;;;8464014;28;20078;-43
2022/06/23 03:56:11;;;;;;;2.28;1.63;;;26.30;43.90;;;;;;8463466;28;20038;-45
2022/06/23 04:00:22;;;;;;;2.20;2.00;;;26.30;43.80;;;;;;8464199;28;20047;-44
2022/06/23 04:04:37;;;;;;;3.05;1.75;;;26.20;43.80;;;;;;8463174;28;20557;-44
2022/06/23 04:08:46;;;;;;;1.40;1.30;;;26.20;43.80;;;;;;8463662;28;20038;-43
2022/06/23 04:12:51;;;;;;;4.20;1.50;;;26.20;43.80;;;;;;8448314;28;20385;-43
2022/06/23 04:17:14;;;;;;;3.08;1.55;;;26.20;43.80;;;;;;8462827;28;20109;-45
2022/06/23 04:21:27;;;;;;;2.42;1.75;;;26.20;43.80;;;;;;8463334;28;20047;-43
2022/06/23 04:25:56;;;;;;;3.55;1.52;;;26.20;43.80;;;;;;8463104;28;20118;-43
2022/06/23 04:29:59;;;;;;;2.03;1.27;;;26.20;43.80;;;;;;8463433;28;20088;-43
2022/06/23 04:34:01;;;;;;;3.20;1.33;;;26.20;43.70;;;;;;8463024;28;20040;-43
2022/06/23 04:38:10;;;;;;;1.52;1.40;;;26.20;43.70;;;;;;8462461;28;20050;-43
2022/06/23 04:42:20;;;;;;;1.75;1.48;;;26.20;43.70;;;;;;8462796;28;20040;-43
2022/06/23 04:46:41;;;;;;;1.45;1.13;;;26.20;43.80;;;;;;8462571;28;20039;-43
2022/06/23 04:50:57;;;;;;;1.83;1.30;;;26.20;43.80;;;;;;8470315;28;20490;-44
2022/06/23 04:55:06;;;;;;;2.70;1.35;;;26.20;43.80;;;;;;8469820;28;20032;-43
2022/06/23 04:59:34;;;;;;;1.35;1.25;;;26.10;43.70;;;;;;8469064;27;20047;-42
2022/06/23 05:03:39;;;;;;;2.15;1.48;;;26.20;43.80;;;;;;8469592;27;20064;-43
2022/06/23 05:07:48;;;;;;;2.67;1.40;;;26.10;43.80;;;;;;8469195;28;20395;-44
2022/06/23 05:12:27;;;;;;;2.30;1.17;;;26.10;43.70;;;;;;8469152;28;20066;-43
2022/06/23 05:16:33;;;;;;;1.88;1.20;;;26.20;43.80;;;;;;8465375;28;20035;-44
2022/06/23 05:20:39;;;;;;;1.40;1.20;;;26.10;43.70;;;;;;8469387;27;20048;-44
2022/06/23 05:24:43;;;;;;;2.60;1.38;;;26.10;43.70;;;;;;8468935;28;20039;-43
2022/06/23 05:28:44;;;;;;;1.90;1.20;;;26.20;43.80;;;;;;8468326;27;20031;-42
2022/06/23 05:32:50;;;;;;;2.22;1.40;;;26.20;43.80;;;;;;8468628;28;20051;-43
2022/06/23 05:37:18;;;;;;;1.23;1.10;;;26.10;43.70;;;;;;8468615;28;20040;-43
2022/06/23 05:41:23;;;;;;;1.90;1.10;;;26.20;43.70;;;;;;8468617;28;20519;-43
2022/06/23 05:45:27;;;;;;;1.10;1.00;;;26.20;43.70;;;;;;8468422;28;20066;-43
2022/06/23 05:49:34;;;;;;;1.30;1.20;;;26.20;43.70;;;;;;8467581;28;20395;-43
2022/06/23 05:54:02;;;;;;;0.98;0.93;;;26.20;43.70;;;;;;8467977;28;20054;-46
2022/06/23 05:58:43;;;;;;;1.40;1.30;;;26.20;43.70;;;;;;8466992;27;20051;-44
2022/06/23 06:02:43;;;;;;;2.30;1.10;;;26.20;43.60;;;;;;8467739;28;20038;-45
2022/06/23 06:06:45;;;;;;;;;;;26.20;43.60;;;;;;8467867;28;20035;-44
2022/06/23 06:10:47;;;;;;;1.73;1.50;;;26.20;43.60;;;;;;8467101;28;19911;-43
2022/06/23 06:14:59;;;;;;;2.25;0.90;;;26.20;43.60;;;;;;8467328;28;20412;-44
2022/06/23 06:19:00;;;;;;;1.35;1.10;;;26.20;43.60;;;;;;8467024;28;20048;-43
2022/06/23 06:23:04;;;;;;;;;;;26.20;43.60;;;;;;8466800;28;20178;-44
2022/06/23 06:27:10;;;;;;;1.35;1.10;;;26.20;43.60;;;;;;8467032;27;19919;-43
2022/06/23 06:31:18;;;;;;;2.45;1.40;;;26.20;43.70;;;;;;8467037;28;20056;-43
2022/06/23 06:35:42;;;;;;;1.42;1.20;;;26.20;43.70;;;;;;8466216;28;20034;-43
2022/06/23 06:39:50;;;;;;;2.70;1.13;;;26.20;43.60;;;;;;8466371;28;20054;-44
2022/06/23 06:43:52;;;;;;;1.48;0.88;;;26.20;43.60;;;;;;8466069;27;20450;-43
2022/06/23 06:47:52;;;;;;;1.63;1.08;;;26.20;43.60;;;;;;8466175;27;20039;-44
2022/06/23 06:51:53;;;;;;;;;;;26.20;43.60;;;;;;8466699;28;20028;-44
2022/06/23 06:56:02;;;;;;;1.52;0.90;;;26.20;43.60;;;;;;8465503;28;19916;-44
2022/06/23 07:00:19;;;;;;;1.50;1.25;;;26.20;43.60;;;;;;8465821;28;20043;-44
2022/06/23 07:04:26;;;;;;;1.30;1.20;;;26.20;43.60;;;;;;8464267;28;20492;-44
2022/06/23 07:08:31;;;;;;;1.08;0.90;;;26.20;43.60;;;;;;8465595;28;20039;-45
2022/06/23 07:12:40;;;;;;;2.65;1.08;;;26.20;43.60;;;;;;8465013;28;20058;-44
2022/06/23 07:16:46;;;;;;;1.90;1.20;;;26.20;43.60;;;;;;8465029;28;20031;-44
2022/06/23 07:21:07;;;;;;;1.30;1.20;;;26.20;43.70;;;;;;8465022;28;20738;-42
2022/06/23 07:25:16;;;;;;;2.60;1.10;;;26.20;43.70;;;;;;8465047;28;20048;-43
2022/06/23 07:29:26;;;;;;;1.63;1.10;;;26.20;43.70;;;;;;8464955;28;20028;-43
2022/06/23 07:33:37;;;;;;;1.60;0.90;;;26.20;43.80;;;;;;8465030;28;20043;-42
2022/06/23 07:38:02;;;;;;;1.75;1.13;;;26.20;44.20;;;;;;8464072;28;20043;-45
2022/06/23 07:42:47;;;;;;;1.25;1.00;;;26.10;43.70;;;;;;8453541;28;20024;-44
2022/06/23 07:46:48;;;;;;;1.83;1.05;;;26.20;43.70;;;;;;8464247;27;20122;-44
2022/06/23 07:50:49;;;;;;;;;;;26.20;43.70;;;;;;8464667;28;20404;-44
2022/06/23 07:54:50;;;;;;;1.10;1.00;;;26.20;43.70;;;;;;8464255;28;19912;-45
2022/06/23 07:58:56;;;;;;;1.38;0.93;;;26.20;43.70;;;;;;8463620;28;20050;-43
2022/06/23 08:03:01;;;;;;;2.05;1.30;;;26.20;43.70;;;;;;8464201;28;20032;-43
2022/06/23 08:07:08;;;;;;;2.28;1.08;;;26.30;43.70;;;;;;8464094;27;20445;-44
2022/06/23 08:20:03;;;;;;;2.03;1.30;;;26.30;43.70;;;;;;8462917;28;20047;-44
2022/06/23 08:24:13;;;;;;;2.22;1.40;;;26.30;43.70;;;;;;8462546;28;20038;-43
2022/06/23 08:28:15;;;;;;;1.40;1.20;;;26.40;43.70;;;;;;8462877;28;20373;-44
2022/06/23 08:32:16;;;;;;;1.40;1.20;;;26.40;43.70;;;;;;8463788;28;20510;-44
2022/06/23 08:36:19;;;;;;;;;;;26.30;43.70;;;;;;8463419;28;20081;-44
2022/06/23 08:40:24;;;;;;;1.83;1.10;;;26.40;43.70;;;;;;8462547;28;19920;-44
2022/06/23 08:44:43;;;;;;;1.05;0.93;;;26.40;43.70;;;;;;8462847;28;20044;-44
2022/06/23 08:49:10;;;;;;;4.05;1.20;;;26.40;43.70;;;;;;8462978;28;20032;-43
2022/06/23 08:53:18;;;;;;;2.70;1.15;;;26.40;43.70;;;;;;8454309;28;20032;-44
2022/06/23 08:57:27;;;;;;;1.23;1.05;;;26.40;43.70;;;;;;8463227;28;20565;-44
2022/06/23 09:01:42;;;;;;;1.73;1.02;;;26.50;43.70;;;;;;8462304;28;20048;-44
2022/06/23 09:05:58;;;;;;;1.02;1.00;;;26.50;43.70;;;;;;8462568;28;20032;-43
2022/06/23 09:10:27;;;;;;;4.35;1.20;;;26.50;43.70;;;;;;8462530;28;20074;-44
2022/06/23 09:14:46;;;;;;;2.25;1.17;;;26.50;43.60;;;;;;8462159;28;20488;-43
2022/06/23 09:19:01;;;;;;;1.23;1.02;;;26.50;43.60;;;;;;8462520;28;20035;-44
2022/06/23 09:23:22;;;;;;;1.38;1.00;;;26.50;43.60;;;;;;8461828;28;20036;-44
2022/06/23 09:27:34;;;;;;;1.77;1.10;;;26.50;43.60;;;;;;8462442;28;20135;-43
2022/06/23 09:32:05;;;;;;;1.27;1.00;;;26.60;43.60;;;;;;8461858;28;20027;-43
2022/06/23 09:36:40;;;;;;;1.33;1.00;;;26.60;43.60;;;;;;8467861;27;20044;-44
2022/06/23 09:41:05;;;;;;;1.13;1.00;;;26.60;43.60;;;;;;8467882;28;20404;-44
2022/06/23 09:45:40;;;;;;;1.60;1.25;;;26.70;43.60;;;;;;8468423;28;20031;-45
2022/06/23 09:49:59;;;;;;;2.47;1.15;;;26.70;43.60;;;;;;8467564;28;20036;-44
2022/06/23 09:54:42;;;;;;;1.35;1.10;;;26.70;43.60;;;;;;8467938;28;20038;-43
2022/06/23 09:59:11;;;;;;;2.00;1.08;;;26.70;43.60;;;;;;8467248;28;20123;-44
2022/06/23 10:03:24;;;;;;;1.42;1.17;;;26.70;43.60;;;;;;8467776;28;20093;-45
2022/06/23 10:07:48;;;;;;;1.33;1.13;;;26.70;43.60;;;;;;8433478;28;20039;-44
2022/06/23 10:12:13;;;;;;;1.17;1.00;;;26.80;43.60;;;;;;8440222;28;20040;-44
2022/06/23 10:16:51;;;;;;;1.45;1.00;;;26.80;43.50;;;;;;8458142;28;20030;-43
2022/06/23 10:20:59;;;;;;;2.08;1.05;;;26.80;43.50;;;;;;8467124;28;20442;-45
2022/06/23 10:25:16;;;;;;;1.17;1.08;;;26.80;43.40;;;;;;8466793;27;20051;-44
2022/06/23 10:29:38;;;;;;;1.48;1.20;;;26.80;43.40;;;;;;8466607;27;20435;-44
2022/06/23 10:33:44;;;;;;;1.30;1.20;;;26.90;43.40;;;;;;8466714;28;20160;-44
2022/06/23 10:38:09;;;;;;;2.38;1.30;;;26.90;43.40;;;;;;8466113;28;20031;-44
2022/06/23 10:42:24;;;;;;;2.80;1.50;;;26.90;43.40;;;;;;8466443;27;20043;-44
2022/06/23 10:47:03;;;;;;;1.65;1.38;;;26.90;43.30;;;;;;8465545;27;20449;-44
2022/06/23 10:51:14;;;;;;;1.40;1.27;;;26.90;43.30;;;;;;8466091;28;20084;-43
2022/06/23 10:55:33;;;;;;;2.53;1.60;;;27.00;43.40;;;;;;8465560;27;20031;-44
2022/06/23 10:59:40;;;;;;;1.67;1.30;;;27.00;43.30;;;;;;8466407;28;20036;-44
2022/06/23 11:04:37;;;;;;;1.25;1.15;;;27.00;43.30;;;;;;8465712;28;20047;-43
2022/06/23 11:08:58;;;;;;;2.83;1.90;;;27.00;43.20;;;;;;8328496;28;20131;-44
2022/06/23 11:13:35;;;;;;;3.05;1.70;;;27.10;43.30;;;;;;8381064;28;20040;-43
2022/06/23 11:17:57;;;;;;;3.60;1.50;;;27.10;43.20;;;;;;8464425;28;20108;-44
2022/06/23 11:22:09;;;;;;;1.98;1.60;;;27.10;43.20;;;;;;8465104;28;20431;-43
2022/06/23 11:26:39;;;;;;;1.70;1.42;;;27.20;43.20;;;;;;8464554;28;20031;-44
2022/06/23 11:30:48;;;;;;;2.60;1.63;;;27.20;43.20;;;;;;8465108;28;20059;-44
2022/06/23 11:35:13;;;;;;;2.50;1.70;;;27.20;43.10;;;;;;8464369;28;20488;-44
2022/06/23 11:39:42;;;;;;;1.70;1.33;;;27.20;43.10;;;;;;8464676;27;20444;-44
2022/06/23 11:44:22;;;;;;;2.40;1.63;;;27.20;43.10;;;;;;8464489;28;20506;-43
2022/06/23 11:48:35;;;;;;;2.92;1.60;;;27.30;43.10;;;;;;8414299;28;20032;-45
2022/06/23 11:52:53;;;;;;;2.53;1.80;;;27.30;43.10;;;;;;8464262;28;20027;-43
2022/06/23 11:57:33;;;;;;;3.45;1.92;;;27.30;43.00;;;;;;8464128;28;20487;-45
2022/06/23 12:01:34;;;;;;;2.05;1.55;;;27.30;43.00;;;;;;8463767;28;20062;-44
2022/06/23 12:05:59;;;;;;;2.40;2.00;;;27.40;43.00;;;;;;8464097;28;20043;-45
2022/06/23 12:10:29;;;;;;;2.78;1.83;;;27.40;43.00;;;;;;8463967;28;20430;-44
2022/06/23 12:14:30;;;;;;;3.05;1.65;;;27.40;42.90;;;;;;8446040;28;20031;-44
2022/06/23 12:18:34;;;;;;;;;;;27.40;42.90;;;;;;8464238;28;20496;-44
2022/06/23 12:22:46;;;;;;;3.65;2.17;;;27.40;42.90;;;;;;8463236;28;19931;-44
2022/06/23 12:27:08;;;;;;;2.63;1.83;;;27.50;42.90;;;;;;8463751;28;20543;-44
2022/06/23 12:31:44;;;;;;;2.08;1.73;;;27.50;42.90;;;;;;8463410;28;20387;-45
2022/06/23 12:36:01;;;;;;;3.25;2.13;;;27.50;42.90;;;;;;8463856;28;20092;-44
2022/06/23 12:40:29;;;;;;;3.22;1.90;;;27.50;42.80;;;;;;8463131;28;20405;-45
2022/06/23 12:44:41;;;;;;;2.72;1.90;;;27.50;42.80;;;;;;8454569;28;20562;-46
2022/06/23 12:48:56;;;;;;;2.58;2.08;;;27.50;42.80;;;;;;8463320;28;20047;-42
2022/06/23 12:53:12;;;;;;;2.63;2.00;;;27.60;42.80;;;;;;8462467;28;20118;-42
2022/06/23 12:57:33;;;;;;;3.13;1.90;;;27.60;42.80;;;;;;8462838;28;20492;-42
2022/06/23 13:01:50;;;;;;;5.28;2.30;;;27.60;42.70;;;;;;8462498;28;20536;-43
2022/06/23 13:06:13;;;;;;;3.28;1.90;;;27.60;42.70;;;;;;8463119;28;20537;-43
2022/06/23 13:10:25;;;;;;;3.33;1.77;;;27.70;42.70;;;;;;8445214;28;20081;-43
2022/06/23 13:14:36;;;;;;;2.08;1.75;;;27.70;42.70;;;;;;8469525;28;20028;-43
2022/06/23 13:19:13;;;;;;;2.72;1.98;;;27.70;42.70;;;;;;8469632;28;20047;-45
2022/06/23 13:23:25;;;;;;;3.20;2.03;;;27.70;42.70;;;;;;8465307;28;20040;-44
2022/06/23 13:27:29;;;;;;;2.63;1.70;;;27.70;42.60;;;;;;8468918;27;20066;-43
2022/06/23 13:31:49;;;;;;;3.78;2.22;;;27.70;43.20;;;;;;8468332;27;20088;-43
2022/06/23 13:35:59;;;;;;;2.88;2.00;;;27.70;42.60;;;;;;8468615;28;20039;-44
2022/06/23 13:40:12;;;;;;;3.15;2.38;;;27.80;42.60;;;;;;8468366;28;20051;-43
2022/06/23 13:44:40;;;;;;;3.38;2.00;;;27.80;42.60;;;;;;8468153;28;20038;-44
2022/06/23 13:48:53;;;;;;;2.67;1.85;;;27.80;42.60;;;;;;8468394;28;20031;-44
2022/06/23 13:53:26;;;;;;;2.97;2.40;;;27.80;42.60;;;;;;8467680;28;20062;-44
2022/06/23 13:57:33;;;;;;;4.55;2.42;;;27.80;42.60;;;;;;8467799;28;20048;-44
2022/06/23 14:01:49;;;;;;;2.58;1.83;;;27.90;42.60;;;;;;8467393;27;20036;-45
2022/06/23 14:06:04;;;;;;;2.75;2.25;;;27.90;42.60;;;;;;8467426;28;20114;-44
2022/06/23 14:10:27;;;;;;;3.58;2.42;;;27.90;42.60;;;;;;8467403;27;20053;-44
2022/06/23 14:14:47;;;;;;;3.20;2.33;;;27.90;42.50;;;;;;8467295;28;20103;-43
2022/06/23 14:19:06;;;;;;;3.90;2.43;;;27.90;42.50;;;;;;8466995;27;20058;-44
2022/06/23 14:23:32;;;;;;;2.63;1.88;;;28.00;42.60;;;;;;8465997;28;20040;-43
2022/06/23 14:27:36;;;;;;;2.65;2.20;;;28.00;42.50;;;;;;8466849;27;20488;-44
2022/06/23 14:31:46;;;;;;;2.60;2.03;;;28.00;42.50;;;;;;8466292;28;20031;-43
2022/06/23 14:35:53;;;;;;;;;;;28.00;42.50;;;;;;8466930;28;20031;-44
2022/06/23 14:40:15;;;;;;;2.78;2.28;;;28.00;42.50;;;;;;8466571;28;19920;-44
2022/06/23 14:44:44;;;;;;;2.60;1.95;;;28.00;42.50;;;;;;8466320;27;20054;-44
2022/06/23 14:49:14;;;;;;;2.55;2.00;;;28.00;42.50;;;;;;8466483;28;20031;-43
2022/06/23 14:53:32;;;;;;;2.60;2.30;;;28.00;42.50;;;;;;8465762;28;20035;-44
2022/06/23 14:57:50;;;;;;;4.68;2.70;;;28.10;42.50;;;;;;8465839;28;20531;-46
2022/06/23 15:02:29;;;;;;;2.60;2.33;;;28.00;42.40;;;;;;8465356;28;20078;-45
2022/06/23 15:06:52;;;;;;;3.60;2.50;;;28.10;42.40;;;;;;8441626;28;20545;-44
2022/06/23 15:11:05;;;;;;;2.58;2.03;;;28.10;42.40;;;;;;8464945;28;20036;-44
2022/06/23 15:15:39;;;;;;;3.58;2.17;;;28.10;42.30;;;;;;8465877;28;20081;-44
2022/06/23 15:20:11;;;;;;;2.95;2.10;;;28.10;42.30;;;;;;8464916;28;20048;-44
2022/06/23 15:24:39;;;;;;;2.95;2.22;;;28.10;42.30;;;;;;8465128;28;20046;-44
2022/06/23 15:28:47;;;;;;;3.58;2.72;;;28.10;42.30;;;;;;8464565;28;20046;-44
2022/06/23 15:32:59;;;;;;;4.22;2.40;;;28.10;42.30;;;;;;8464806;28;20112;-46
2022/06/23 15:37:27;;;;;;;3.13;2.28;;;28.10;42.30;;;;;;8464486;28;20040;-43
2022/06/23 15:41:33;;;;;;;2.80;2.50;;;28.10;42.30;;;;;;8464314;28;20488;-44
2022/06/23 15:45:42;;;;;;;2.70;2.40;;;28.10;42.30;;;;;;8464487;28;20084;-44
2022/06/23 15:49:50;;;;;;;2.75;2.10;;;28.10;42.30;;;;;;8464061;28;20066;-44
2022/06/23 15:54:00;;;;;;;3.63;2.40;;;28.10;42.40;;;;;;8464381;28;20480;-43
2022/06/23 15:58:28;;;;;;;3.13;2.47;;;28.10;42.30;;;;;;8464174;28;20487;-43
2022/06/23 16:02:47;;;;;;;3.15;2.10;;;28.10;42.30;;;;;;8463571;27;20032;-44
2022/06/23 16:06:52;;;;;;;3.15;2.20;;;28.10;42.40;;;;;;8458243;28;20078;-43
2022/06/23 16:11:01;;;;;;;7.75;3.13;;;28.10;42.30;;;;;;8442437;28;20048;-46
2022/06/23 16:15:07;;;;;;;5.50;2.78;;;28.20;42.20;;;;;;8459008;28;20035;-45
2022/06/23 16:19:31;;;;;;;12.68;2.30;;;28.20;42.10;;;;;;8457331;28;20047;-42
2022/06/23 16:23:54;;;;;;;12.45;2.58;;;28.40;41.60;;;;;;8457690;28;20072;-45
2022/06/23 16:28:17;;;;;;;6.90;2.53;;;28.40;41.50;;;;;;8458366;28;20044;-45
2022/06/23 16:32:29;;;;;;;10.85;3.83;;;28.50;41.20;;;;;;8462343;28;20496;-43
2022/06/23 16:36:41;;;;;;;9.57;2.53;;;28.60;40.70;;;;;;8461474;28;20036;-43
2022/06/23 16:40:53;;;;;;;15.93;2.92;;;28.60;40.80;;;;;;8460147;28;20118;-43
2022/06/23 16:45:18;;;;;;;15.18;3.45;;;28.60;40.30;;;;;;8462549;28;20400;-42
2022/06/23 16:49:46;;;;;;;14.40;2.65;;;28.70;40.20;;;;;;8462213;28;20325;-41
2022/06/23 16:53:57;;;;;;;14.73;3.10;;;28.60;41.70;;;;;;8463197;28;20392;-41
2022/06/23 16:58:14;;;;;;;12.55;2.65;;;28.60;41.60;;;;;;8457668;28;20109;-41
2022/06/23 17:02:35;;;;;;;14.07;4.18;;;28.50;41.80;;;;;;8462677;28;20392;-41
2022/06/23 17:06:59;;;;;;;9.35;2.97;;;28.50;41.90;;;;;;8461375;28;20462;-41
2022/06/23 17:11:12;;;;;;;8.10;2.72;;;28.40;42.00;;;;;;8461739;28;20027;-41
2022/06/23 17:15:21;;;;;;;9.48;2.80;;;28.40;42.10;;;;;;8462695;28;20039;-41
2022/06/23 17:19:30;;;;;;;15.00;3.25;;;28.40;42.30;;;;;;8460070;28;20062;-41
2022/06/23 17:23:32;;;;;;;9.85;3.63;;;28.40;42.30;;;;;;8462145;28;20038;-41
2022/06/23 17:27:43;;;;;;;10.27;3.22;;;28.30;42.30;;;;;;8461869;28;20032;-41
2022/06/23 17:31:50;;;;;;;8.13;2.97;;;28.30;42.40;;;;;;8461471;28;20028;-41
2022/06/23 17:35:56;;;;;;;10.73;3.53;;;28.30;42.40;;;;;;8458157;28;20040;-41
2022/06/23 17:44:50;;;;;;;7.50;3.03;;;28.30;42.40;;;;;;8456080;28;20054;-41
2022/06/23 17:49:02;;;;;;;8.15;3.67;;;28.30;42.50;;;;;;8461595;28;20046;-41
2022/06/23 17:53:15;;;;;;;4.97;2.42;;;28.30;42.60;;;;;;8460948;28;20039;-41
2022/06/23 17:57:27;;;;;;;10.65;3.53;;;28.20;42.60;;;;;;8467214;27;20047;-40
2022/06/23 18:01:28;;;;;;;8.95;3.28;;;28.20;42.60;;;;;;8466983;27;20061;-40
2022/06/23 18:05:30;;;;;;;7.32;2.65;;;28.20;42.60;;;;;;8467467;28;20058;-41
2022/06/23 18:09:31;;;;;;;6.45;2.55;;;28.20;43.20;;;;;;8467487;28;20031;-41
2022/06/23 18:14:02;;;;;;;6.00;2.33;;;28.20;42.70;;;;;;8466730;28;20118;-41
2022/06/23 18:18:12;;;;;;;8.52;2.50;;;28.20;42.70;;;;;;8467338;27;20044;-40
2022/06/23 18:22:40;;;;;;;7.20;2.58;;;28.20;42.70;;;;;;8467277;28;20085;-41
2022/06/23 18:26:51;;;;;;;9.07;2.47;;;28.20;42.70;;;;;;8466995;28;20035;-40
2022/06/23 18:30:55;;;;;;;6.60;2.33;;;28.20;42.70;;;;;;8467209;28;20085;-41
2022/06/23 18:35:12;;;;;;;7.03;3.78;;;28.10;42.70;;;;;;8466403;28;20039;-40
2022/06/23 18:39:21;;;;;;;7.82;2.72;;;28.20;42.70;;;;;;8466813;28;20054;-40
2022/06/23 18:43:40;;;;;;;5.40;2.72;;;28.20;42.70;;;;;;8466194;28;20392;-40
2022/06/23 18:48:00;;;;;;;6.68;2.20;;;28.10;42.60;;;;;;8466611;28;20031;-41
2022/06/23 18:52:09;;;;;;;8.10;2.58;;;28.10;42.50;;;;;;8466255;28;20036;-40
2022/06/23 18:56:20;;;;;;;7.25;2.80;;;28.10;42.50;;;;;;8465932;28;20366;-40
2022/06/23 19:00:21;;;;;;;8.18;2.47;;;28.10;42.40;;;;;;8466116;28;20078;-41
2022/06/23 19:04:52;;;;;;;6.32;2.40;;;28.10;42.50;;;;;;8465392;27;20484;-41
2022/06/23 19:09:17;;;;;;;5.47;2.53;;;28.10;42.50;;;;;;8464321;28;20515;-41
2022/06/23 19:13:24;;;;;;;5.65;2.25;;;28.00;42.60;;;;;;8465229;27;20036;-41
2022/06/23 19:17:52;;;;;;;5.07;2.35;;;28.00;42.70;;;;;;8465318;28;20044;-41
2022/06/23 19:22:03;;;;;;;7.10;2.20;;;28.00;42.70;;;;;;8465443;28;20094;-40
2022/06/23 19:26:11;;;;;;;4.97;2.15;;;27.90;42.80;;;;;;8465111;28;20059;-41
2022/06/23 19:30:25;;;;;;;7.50;2.35;;;27.90;42.80;;;;;;8465151;28;20036;-40
2022/06/23 19:34:31;;;;;;;9.73;2.70;;;27.90;42.80;;;;;;8464519;28;20055;-41
2022/06/23 19:38:37;;;;;;;4.57;1.80;;;27.90;42.90;;;;;;8464670;27;20134;-41
2022/06/23 19:42:57;;;;;;;6.10;2.08;;;27.90;42.90;;;;;;8464904;28;20031;-41
2022/06/23 19:47:01;;;;;;;7.30;2.90;;;27.90;43.00;;;;;;8464328;28;20070;-41
2022/06/23 19:51:23;;;;;;;3.47;1.85;;;27.90;43.10;;;;;;8464296;28;20043;-41
2022/06/23 19:55:28;;;;;;;5.63;1.95;;;27.90;43.00;;;;;;8463906;28;20028;-41
2022/06/23 19:59:36;;;;;;;7.25;1.80;;;27.90;43.10;;;;;;8464474;28;20050;-41
2022/06/23 20:03:57;;;;;;;4.88;1.98;;;27.80;43.10;;;;;;8464140;28;20066;-41
2022/06/23 20:08:23;;;;;;;3.20;1.85;;;27.80;43.00;;;;;;8452199;28;20046;-42
2022/06/23 20:12:38;;;;;;;3.85;1.85;;;27.80;43.00;;;;;;8463692;28;20482;-41
2022/06/23 20:16:54;;;;;;;5.38;1.63;;;27.80;43.00;;;;;;8463292;28;20040;-41
2022/06/23 20:21:03;;;;;;;4.93;1.90;;;27.80;43.00;;;;;;8462866;28;20051;-42
2022/06/23 20:25:38;;;;;;;3.40;1.65;;;27.80;43.00;;;;;;8463627;28;20067;-42
2022/06/23 20:30:00;;;;;;;4.05;1.73;;;27.80;43.00;;;;;;8463460;28;20038;-42
2022/06/23 20:34:15;;;;;;;3.47;1.73;;;27.80;43.10;;;;;;8463306;28;20038;-42
2022/06/23 20:38:40;;;;;;;3.97;1.70;;;27.80;43.00;;;;;;8462720;28;20082;-42
2022/06/23 20:43:15;;;;;;;4.80;1.90;;;27.80;43.10;;;;;;8463138;28;20058;-42
2022/06/23 20:47:37;;;;;;;4.32;1.70;;;27.70;43.00;;;;;;8462998;28;20047;-42
2022/06/23 20:51:53;;;;;;;6.47;2.00;;;27.70;43.00;;;;;;8463017;28;20039;-40
2022/06/23 20:56:05;;;;;;;2.85;1.60;;;27.70;43.00;;;;;;8462426;28;20110;-41
2022/06/23 21:00:14;;;;;;;3.95;1.70;;;27.70;43.00;;;;;;8462722;28;20524;-41
2022/06/23 21:04:37;;;;;;;3.22;1.73;;;27.70;43.00;;;;;;8462426;28;20039;-41
2022/06/23 21:08:43;;;;;;;3.28;1.67;;;27.70;43.00;;;;;;8462951;28;20077;-41
2022/06/23 21:13:04;;;;;;;3.15;1.45;;;27.70;43.00;;;;;;8462765;28;20512;-40
2022/06/23 21:17:29;;;;;;;3.55;1.77;;;27.70;43.00;;;;;;8462260;28;20035;-40
2022/06/23 21:21:50;;;;;;;4.22;1.52;;;27.60;43.00;;;;;;8462322;28;20032;-40
2022/06/23 21:25:59;;;;;;;6.25;1.98;;;27.60;43.00;;;;;;8462123;28;20036;-41
2022/06/23 21:30:31;;;;;;;3.70;1.30;;;27.60;43.00;;;;;;8464879;28;20040;-41
2022/06/23 21:34:44;;;;;;;4.05;1.80;;;27.60;43.00;;;;;;8468260;28;20066;-41
2022/06/23 21:39:07;;;;;;;2.92;1.42;;;27.60;43.10;;;;;;8468878;28;20584;-41
2022/06/23 21:43:11;;;;;;;2.53;1.50;;;27.60;43.10;;;;;;8467828;28;20027;-41
2022/06/23 21:47:16;;;;;;;2.97;1.40;;;27.60;43.10;;;;;;8468194;28;20400;-41
2022/06/23 21:51:25;;;;;;;5.53;2.13;;;27.60;43.10;;;;;;8468102;27;20036;-41
2022/06/23 21:55:29;;;;;;;3.28;1.63;;;27.60;43.10;;;;;;8467706;27;20031;-41
2022/06/23 21:59:49;;;;;;;3.17;1.50;;;27.60;43.10;;;;;;8467868;28;20047;-41
2022/06/23 22:04:17;;;;;;;3.03;1.40;;;27.60;43.10;;;;;;8465960;28;20031;-41
2022/06/23 22:08:30;;;;;;;4.07;1.85;;;27.60;43.10;;;;;;8467831;28;20039;-41
2022/06/23 22:12:35;;;;;;;3.42;1.48;;;27.60;43.10;;;;;;8467819;28;20506;-41
2022/06/23 22:16:37;;;;;;;2.80;1.65;;;27.50;43.10;;;;;;8466924;28;20047;-41
2022/06/23 22:20:44;;;;;;;4.25;1.60;;;27.60;43.20;;;;;;8467139;27;20044;-41
2022/06/23 22:29:20;;;;;;;3.35;1.60;;;27.50;43.20;;;;;;8466626;28;20294;-41
2022/06/23 22:33:36;;;;;;;3.22;1.70;;;27.50;43.20;;;;;;8467011;28;20028;-41
2022/06/23 22:37:46;;;;;;;2.35;1.83;;;27.50;43.20;;;;;;8466447;27;20047;-41